Pagrindinis puslapis
METAR-TAF:

METAR-TAF

Oro uostai :

Arar, Saudo Arabija

platuma: 30-54N, ilguma: 041-08E, Aukštis: 555 m

Dabartinis oras

Ataskaita buvo paskelbta 1 valandą ir 14 minutes, ne 21:00 UTC
Vėjas 17 kt iš Vakarų/Šiaurės Vakarų
Temperatūra 15°C
Drėgmė 41%
Slėgis 1009 hPa
Matomumas 10 km arba daugiau
nėra debesų žemiau 1500 m ir nėra kamuolinių lietaus debesų

METAR: OERR 122100Z 30017KT CAVOK 15/02 Q1009

Laikas: 01:14 (22:14 UTC)

Prognozė

Ataskaita buvo paskelbta 11 valandos ir 14 minutes, ne 11:00 UTC
Prognozė galioja nuo 12 metu 12 UTC su 13 metu 18 UTC
Vėjas 12 kt iš Pietų/Pietvakarių
Matomumas 10 km arba daugiau
Mažai debesys ne aukštis 4000 ft
Išsisklaidę debesys ne aukštis 10000 ft
Tapsmas
nuo 12 metu 18 UTC su 12 metu 20 UTC
Vėjas 3 kt nuo kintamojo kryptimis

TAF: OERR 121100Z 1212/1318 20012KT 9999 FEW040 SCT100 BECMG 1218/1220 VRB03KT

Orai ataskaitas ir orų prognozės (METAR, TAF).

turimą stotys yra geltonos ir raudonos taškus žemėlapyje.

Perkelti pele per norėdami pamatyti stoties vardą.

Tada spustelėkite, norėdami matyti oro stebėjimo ir prognozės.

Norėdami pakeisti žemėlapį: spustelėkite ant žalios mygtukų su juodo kryžiaus žemyn,; žalią mygtuką su brūkšneliu, jei norite nutolinti; arba žalių rodyklių gretimoms žemėlapius.


METAR-TAF: